Tiempo atmosférico en la estación meteorológica de Lanaja, Huesca (380 m.)



Fecha
DESCASC
Temp. máxima en grados centígrados (hora)
DESCASC
Temp. mínima en grados centígrados (hora)
DESCASC
Temp. media en grados centígrados
DESCASC
Racha de viento máxima en m/sg (hora)
DESCASC
Velocidad máxima media en intervalos de 10 minutos(hora)
DESCASC
Precipitaciones diarias en mm
DESCASC
Precipitaciones de 00:00 a 06:00 en mm
DESCASC
Precipitaciones de 06:00 a 12:00 en mm
DESCASC
Precipitaciones de 12:00 a 18:00 en mm
DESCASC
Precipitaciones de 18:00 a 24:00 en mm
DESCASC
24-12-2019 16.3 (13:00) 9.4 (00:00) 12.8 12.78 (12:20) 8.06 (13:20) 0 0 0 0 0
20-12-2019 15.5 (05:20) 8.8 (00:00) 12.2 15.28 (10:40) 10 (10:50) 13.4 3.6 7.4 0.2 2.2
22-12-2019 13.7 (13:40) 9.1 (00:00) 11.4 22.5 (02:40) 14.72 (02:40) 2.8 0 0 2.8 0
21-12-2019 14 (19:40) 7.7 (00:00) 10.8 22.5 (20:30) 14.44 (20:30) 4 0.2 1 2.4 0.4
23-12-2019 13.2 (14:40) 6.7 (00:00) 9.9 14.17 (13:20) 10.28 (13:20) 0 0 0 0 0
26-12-2019 14.3 (12:20) 2.8 (00:00) 8.6 15.83 (13:50) 11.67 (13:50) 0 0 0 0 0
17-01-2020 13.5 (13:30) 3.5 (00:00) 8.5 13.33 (12:10) 9.17 (15:20) 0.2 0.2 0 0 0
19-12-2019 11.3 (17:00) 5.5 (02:20) 8.4 9.72 (22:30) 5.56 (22:30) 1 0 0 0 1
25-12-2019 10 (00:00) 4.9 (00:00) 7.5 2.5 (16:40) 1.39 (12:40) 0.2 0 0 0 0.2
10-01-2020 11.4 (15:00) 3.2 (00:00) 7.3 14.72 (05:40) 11.67 (05:40) 0 0 0 0 0
16-01-2020 12.3 (15:40) 0.3 (00:00) 6.3 3.61 (16:20) 2.22 (01:10) 0 0 0 0 0
11-01-2020 10.6 (15:00) 0.1 (00:00) 5.4 6.39 (04:40) 5 (04:30) 0 0 0 0 0
04-01-2020 4.5 (13:30) 1.7 (00:00) 3.1 4.17 (14:40) 3.06 (15:10) 0 0 0 0 0
06-01-2020 5.1 (15:00) 0.9 (00:00) 3 4.72 (19:30) 3.89 (19:30) 0 0 0 0 0
30-12-2019 4.4 (15:30) 1.4 (00:00) 2.9 -- (--) -- (--) 0 0 0 0 0
31-12-2019 3.7 (15:00) 1.6 (00:00) 2.7 -- (--) -- (--) 0 0 0 0 0
27-12-2019 5.8 (00:00) -2 (-00:0) 1.9 3.61 (13:30) 2.22 (13:30) 0 0 0 0 0
03-01-2020 4.3 (14:40) -0.7 (-00:0) 1.8 3.89 (05:00) 2.78 (05:00) 0 0 0 0 0
07-01-2020 2.5 (16:10) 0.2 (00:00) 1.4 3.61 (12:10) 2.5 (00:10) 0 0 0 0 0
05-01-2020 3.2 (15:30) -0.9 (-00:0) 1.2 3.89 (00:20) 3.06 (00:30) 0 0 0 0 0
09-01-2020 3.5 (15:30) -1.2 (-00:0) 1.1 3.89 (21:20) 2.78 (21:30) 0 0 0 0 0
08-01-2020 2.4 (15:20) -0.6 (-00:0) 0.9 3.89 (20:10) 3.33 (20:00) 0 0 0 0 0
15-01-2020 6.4 (17:20) -4.6 (-00:0) 0.9 5 (21:30) 3.06 (15:00) 0 0 0 0 0
01-01-2020 1.6 (00:00) -0.1 (00:00) 0.8 4.44 (06:30) 3.06 (05:40) 0 0 0 0 0
29-12-2019 2.5 (13:40) -0.8 (-00:0) 0.8 4.17 (05:20) 2.5 (05:40) 0 0 0 0 0
02-01-2020 0.8 (15:50) -1.2 (-00:0) -0.2 3.06 (07:10) 2.22 (09:10) 0 0 0 0 0
28-12-2019 2.2 (15:00) -2.6 (-00:0) -0.2 3.61 (09:10) 2.5 (04:20) 0 0 0 0 0
12-01-2020 1.2 (01:10) -3.5 (-00:0) -1.1 3.06 (17:00) 1.94 (20:00) 0 0 0 0 0
14-01-2020 1.9 (16:10) -5.2 (-00:0) -1.6 3.89 (01:00) 2.78 (00:50) 0 0 0 0 0
13-01-2020 2 (16:00) -5.3 (-00:0) -1.7 3.33 (16:30) 2.22 (16:20) 0 0 0 0 0

Gráficas

Temp. máximas Temp. mínimas Temp. medias Precipitaciones Rachas de viento máximas Velocidades máximas media en intervalos de 10 minutos

Datos horarios

Fecha y hora oficial Temperatura (ºC) Velocidad del viento (km/h) Dirección del viento Racha (km/h) Dirección de racha Precipitación (mm) Presión (hPa) Tendencia (hPa) Humedad (%)
2020-01-17 23:00:00 5 18 Noroeste 31 Oeste 0 -- -- 73
2020-01-17 22:00:00 6.1 23 Noroeste 32 Noroeste 0 -- -- 68
2020-01-17 21:00:00 6.7 21 Noroeste 30 Oeste 0 -- -- 66
2020-01-17 20:00:00 7.2 18 Oeste 26 Oeste 0 -- -- 63
2020-01-17 19:00:00 6.6 17 Noroeste 27 Noroeste 0 -- -- 69
2020-01-17 18:00:00 8.6 17 Noroeste 39 Noroeste 0 -- -- 63
2020-01-17 17:00:00 11.2 24 Noroeste 38 Noroeste 0 -- -- 55
2020-01-17 16:00:00 11.3 25 Noroeste 48 Noroeste 0 -- -- 58
2020-01-17 15:00:00 12.1 31 Noroeste 45 Noroeste 0 -- -- 57
2020-01-17 14:00:00 11.9 21 Noroeste 39 Noroeste 0 -- -- 63
2020-01-17 13:00:00 12.9 28 Oeste 48 Oeste 0 -- -- 60
2020-01-17 12:00:00 12.3 28 Oeste 47 Oeste 0 -- -- 62
2020-01-17 11:00:00 10.4 18 Noroeste 35 Oeste 0 -- -- 68
2020-01-17 10:00:00 6.6 9 Norte 18 Oeste 0 -- -- 82
2020-01-17 09:00:00 4.6 8 Norte 15 Nordeste 0 -- -- 94
2020-01-17 08:00:00 4.5 5 Oeste 21 Norte 0 -- -- 94
2020-01-17 07:00:00 5 3 Sudoeste 9 Sudoeste 0 -- -- 92
2020-01-17 06:00:00 5.2 4 Sur 6 Sur 0 -- -- 91
2020-01-17 05:00:00 5.2 3 Sur 68 Oeste 0.2 -- -- 90
2020-01-17 04:00:00 5.4 3 Sudoeste 11 Noroeste 0 -- -- 88
2020-01-17 03:00:00 4.7 5 Oeste 10 Noroeste 0 -- -- 90
2020-01-17 02:00:00 4.8 4 Sudoeste 6 Sudoeste 0 -- -- 89
2020-01-17 01:00:00 4.7 5 Oeste 10 Sudeste 0 -- -- 89
2020-01-17 00:00:00 5.3 4 Sudeste 11 Noroeste 0 -- -- 86
2020-01-16 23:00:00 5.2 4 Sudoeste 8 Sudeste 0 -- -- 84
2020-01-16 22:00:00 5.3 3 Sudoeste 9 Sudoeste 0 -- -- 85
2020-01-16 21:00:00 6 4 Sur 8 Sur 0 -- -- 83
2020-01-16 20:00:00 6.7 4 Sur 12 Sudeste 0 -- -- 81
2020-01-16 19:00:00 7.7 3 Sur 9 Sudeste 0 -- -- 79
2020-01-16 18:00:00 9.2 8 Sur 10 Sur 0 -- -- 74
2020-01-16 17:00:00 11 6 Sur 13 Sudeste 0 -- -- 68
2020-01-16 16:00:00 11.9 6 Sudeste 11 Sudeste 0 -- -- 65
2020-01-16 15:00:00 11.3 8 Sudeste 12 Sudeste 0 -- -- 66
2020-01-16 14:00:00 10.3 6 Sudeste 11 Este 0 -- -- 69
2020-01-16 13:00:00 8.8 6 Sur 10 Sur 0 -- -- 72
2020-01-16 12:00:00 7.1 4 Sudeste 7 Sudeste 0 -- -- 76
2020-01-16 11:00:00 4.5 4 Sur 8 Sudeste 0 -- -- 87
2020-01-16 10:00:00 3.3 0 Calma 8 Sudeste 0 -- -- 93
2020-01-16 09:00:00 1.4 5 Sur 6 Sur 0 -- -- 95
2020-01-16 08:00:00 0.5 4 Sur 7 Sur 0 -- -- 94
2020-01-16 07:00:00 0.8 4 Sur 5 Sudoeste 0 -- -- 94
2020-01-16 06:00:00 1.1 0 Calma 5 Sur 0 -- -- 94
2020-01-16 05:00:00 1.3 5 Sudoeste 6 Sudoeste 0 -- -- 94
2020-01-16 04:00:00 0.9 5 Sudoeste 7 Sur 0 -- -- 95
2020-01-16 03:00:00 0.8 4 Sur 8 Sudeste 0 -- -- 94
2020-01-16 02:00:00 1.9 0 Calma 12 Sudoeste 0 -- -- 95
2020-01-16 01:00:00 0.9 5 Sudoeste 11 Sudeste 0 -- -- 94
2020-01-16 00:00:00 0.9 9 Este 12 Nordeste 0 -- -- 91
2020-01-15 23:00:00 2.6 3 Sur 9 Este 0 -- -- 89
2020-01-15 22:00:00 2.8 3 Sudeste 18 Norte 0 -- -- 89
2020-01-15 21:00:00 4.2 5 Sur 10 Sudoeste 0 -- -- 83
2020-01-15 20:00:00 3.3 3 Sudoeste 8 Sudoeste 0 -- -- 88
2020-01-15 19:00:00 3.4 5 Sur 12 Sudeste 0 -- -- 85
2020-01-15 18:00:00 5.9 7 Noroeste 9 Noroeste 0 -- -- 81
2020-01-15 17:00:00 6 9 Sur 12 Sur 0 -- -- 90
2020-01-15 16:00:00 5.4 6 Sudeste 16 Sur 0 -- -- 91
2020-01-15 15:00:00 5.1 11 Sur 17 Sur 0 -- -- 92
2020-01-15 14:00:00 3.8 6 Sudeste 10 Sur 0 -- -- 96
2020-01-15 13:00:00 2 4 Este 9 Sudeste 0 -- -- 98
2020-01-15 12:00:00 1.1 4 Nordeste 10 Nordeste 0 -- -- 98
2020-01-15 11:00:00 0.3 2 Sur 10 Nordeste 0 -- -- 98
2020-01-15 10:00:00 -2.4 7 Sudoeste 9 Sudoeste 0 -- -- 98
2020-01-15 09:00:00 -4.5 3 Sur 4 Sudoeste 0 -- -- 95
2020-01-15 08:00:00 -4.4 3 Sudeste 9 Este 0 -- -- 95
2020-01-15 07:00:00 -4.1 2 Sur 4 Sur 0 -- -- 95
2020-01-15 06:00:00 -4.2 4 Sudeste 6 Sudeste 0 -- -- 95
2020-01-15 05:00:00 -3.6 6 Nordeste 11 Nordeste 0 -- -- 94
2020-01-15 04:00:00 -3 0 Calma 4 Noroeste 0 -- -- 97
2020-01-15 03:00:00 -3 5 Este 9 Norte 0 -- -- 96
2020-01-15 02:00:00 -2.9 6 Noroeste 9 Noroeste 0 -- -- 96
2020-01-15 01:00:00 -3.6 3 Sudoeste 12 Noroeste 0 -- -- 96
2020-01-15 00:00:00 -4 0 Calma 6 Nordeste 0 -- -- 95
2020-01-14 23:00:00 -3 4 Norte 12 Noroeste 0 -- -- 96
2020-01-14 22:00:00 -2.4 7 Noroeste 11 Noroeste 0 -- -- 96
2020-01-14 21:00:00 -2 4 Noroeste 7 Noroeste 0 -- -- 97
2020-01-14 20:00:00 -1.7 2 Oeste 9 Norte 0 -- -- 97
2020-01-14 19:00:00 -1 2 Noroeste 5 Sudoeste 0 -- -- 97
2020-01-14 18:00:00 0.2 0 Calma 4 Sudeste 0 -- -- 97
2020-01-14 17:00:00 1.1 4 Sudeste 10 Sudeste 0 -- -- 97
2020-01-14 16:00:00 1.6 5 Sudeste 10 Sur 0 -- -- 98
2020-01-14 15:00:00 0.2 5 Sudeste 8 Sudeste 0 -- -- 98
2020-01-14 14:00:00 -0.3 5 Sur 9 Sudoeste 0 -- -- 97
2020-01-14 13:00:00 -1.2 4 Sur 9 Sur 0 -- -- 97
2020-01-14 12:00:00 -2.2 3 Sudeste 7 Sudeste 0 -- -- 96
2020-01-14 11:00:00 -2.8 3 Sudeste 6 Este 0 -- -- 96
2020-01-14 10:00:00 -3.3 0 Calma 7 Norte 0 -- -- 96
2020-01-14 09:00:00 -3.8 2 Este 8 Este 0 -- -- 96
2020-01-14 08:00:00 -5 4 Este 7 Este 0 -- -- 95
2020-01-14 07:00:00 -5.2 2 Sudeste 12 Oeste 0 -- -- 94
2020-01-14 06:00:00 -4.2 0 Calma 9 Sur 0 -- -- 95
2020-01-14 05:00:00 -4.5 4 Sudeste 8 Nordeste 0 -- -- 95
2020-01-14 04:00:00 -4 0 Calma 9 Sur 0 -- -- 95
2020-01-14 03:00:00 -3.9 3 Sur 12 Sudoeste 0 -- -- 96
2020-01-14 02:00:00 -3.2 9 Sudoeste 12 Sudoeste 0 -- -- 96
2020-01-14 01:00:00 -2.8 10 Nordeste 14 Nordeste 0 -- -- 97
2020-01-14 00:00:00 -2.4 3 Sur 8 Sudoeste 0 -- -- 97
2020-01-13 23:00:00 -2.5 3 Nordeste 9 Sur 0 -- -- 97
2020-01-13 22:00:00 -2 0 Calma 5 Noroeste 0 -- -- 97
2020-01-13 21:00:00 -1.3 3 Oeste 6 Sur 0 -- -- 97
2020-01-13 20:00:00 -0.9 5 Sudoeste 10 Sudoeste 0 -- -- 97
2020-01-13 19:00:00 -0.5 5 Sur 8 Sur 0 -- -- 97
2020-01-13 18:00:00 0.8 6 Sur 8 Sudeste 0 -- -- 97
2020-01-13 17:00:00 1.7 3 Sudeste 12 Sudeste 0 -- -- 97
2020-01-13 16:00:00 2 4 Sudeste 9 Sudeste 0 -- -- 97
2020-01-13 15:00:00 1.8 4 Sudeste 9 Este 0 -- -- 98
2020-01-13 14:00:00 0 4 Sur 8 Sur 0 -- -- 97
2020-01-13 13:00:00 -0.8 2 Norte 8 Sur 0 -- -- 97
2020-01-13 12:00:00 -1.7 2 Sur 5 Sur 0 -- -- 97
2020-01-13 11:00:00 -3 0 Calma 7 Sudeste 0 -- -- 96
2020-01-13 10:00:00 -3.9 5 Sur 7 Sur 0 -- -- 95
2020-01-13 09:00:00 -4.5 3 Norte 4 Sur 0 -- -- 95
2020-01-13 08:00:00 -5.3 2 Sur 5 Sur 0 -- -- 94
2020-01-13 07:00:00 -5.1 4 Sur 8 Sudoeste 0 -- -- 94
2020-01-13 06:00:00 -4.8 3 Sudoeste 5 Sudoeste 0 -- -- 94
2020-01-13 05:00:00 -4.9 3 Norte 6 Norte 0 -- -- 94
2020-01-13 04:00:00 -4.4 2 Norte 5 Norte 0 -- -- 95
2020-01-13 03:00:00 -3.6 6 Noroeste 8 Norte 0 -- -- 95
2020-01-13 02:00:00 -4.2 0 Calma 9 Noroeste 0 -- -- 95
2020-01-13 01:00:00 -3.5 5 Noroeste 8 Noroeste 0 -- -- 96
2020-01-13 00:00:00 -2.2 3 Sudoeste 8 Norte 0 -- -- 97
2020-01-12 23:00:00 -1.9 5 Norte 8 Norte 0 -- -- 97
2020-01-12 22:00:00 -1.4 3 Noroeste 6 Noroeste 0 -- -- 96
2020-01-12 21:00:00 -0.7 3 Sudoeste 10 Norte 0 -- -- 97
2020-01-12 20:00:00 -0.6 7 Norte 10 Norte 0 -- -- 96
2020-01-12 19:00:00 -0.1 3 Sudoeste 6 Sur 0 -- -- 96
2020-01-12 18:00:00 0.2 4 Sur 9 Sur 0 -- -- 96
2020-01-12 17:00:00 0.5 6 Sur 11 Sur 0 -- -- 96
2020-01-12 16:00:00 1 2 Noroeste 8 Este 0 -- -- 96
2020-01-12 15:00:00 1.2 3 Sur 7 Sudoeste 0 -- -- 96
2020-01-12 14:00:00 0.6 3 Sur 6 Sudeste 0 -- -- 96
2020-01-12 13:00:00 -0.3 2 Oeste 7 Noroeste 0 -- -- 96
2020-01-12 12:00:00 -1.1 2 Sudoeste 6 Nordeste 0 -- -- 96
2020-01-12 11:00:00 -2.3 3 Este 6 Sudeste 0 -- -- 96
2020-01-12 10:00:00 -3.5 3 Norte 6 Oeste 0 -- -- 95
2020-01-12 09:00:00 -3 0 Calma 4 Nordeste 0 -- -- 95
2020-01-12 08:00:00 -2.7 0 Calma 4 Sur 0 -- -- 95
2020-01-12 07:00:00 -2.7 0 Calma 6 Nordeste 0 -- -- 96
2020-01-12 06:00:00 -2.6 3 Norte 5 Norte 0 -- -- 95
2020-01-12 05:00:00 -1.1 0 Calma 6 Sudeste 0 -- -- 94
2020-01-12 04:00:00 -0.6 2 Sudoeste 6 Sur 0 -- -- 94
2020-01-12 03:00:00 -0.2 2 Sudoeste 4 Sudoeste 0 -- -- 94
2020-01-12 02:00:00 0.7 2 Sudoeste 5 Sur 0 -- -- 93
2020-01-12 01:00:00 1 5 Sur 8 Sudoeste 0 -- -- 93
2020-01-12 00:00:00 0.9 5 Sur 8 Sudeste 0 -- -- 82
2020-01-11 23:00:00 2 6 Sur 9 Sudoeste 0 -- -- 82
2020-01-11 22:00:00 2.3 4 Sur 8 Sur 0 -- -- 83
2020-01-11 21:00:00 2.3 5 Sur 9 Sudeste 0 -- -- 82
2020-01-11 20:00:00 3.5 5 Sur 10 Sudeste 0 -- -- 79
2020-01-11 19:00:00 5.5 9 Sudeste 12 Sudeste 0 -- -- 78
2020-01-11 18:00:00 6.8 4 Sur 12 Sudeste 0 -- -- 74
2020-01-11 17:00:00 8.6 5 Sur 10 Nordeste 0 -- -- 69
2020-01-11 16:00:00 9.2 6 Sudeste 15 Sur 0 -- -- 68
2020-01-11 15:00:00 10.6 6 Noroeste 15 Norte 0 -- -- 54
2020-01-11 14:00:00 8.6 4 Sudeste 12 Sudeste 0 -- -- 69
2020-01-11 13:00:00 6.8 8 Este 13 Nordeste 0 -- -- 75
2020-01-11 12:00:00 7.3 11 Noroeste 19 Noroeste 0 -- -- 70
2020-01-11 11:00:00 4.8 2 Sudeste 6 Sur 0 -- -- 80
2020-01-11 10:00:00 2.8 3 Sur 6 Nordeste 0 -- -- 83
2020-01-11 09:00:00 1.2 4 Este 5 Este 0 -- -- 89
2020-01-11 08:00:00 0.1 4 Sudoeste 6 Sudeste 0 -- -- 89
2020-01-11 07:00:00 0.9 5 Este 9 Este 0 -- -- 88
2020-01-11 06:00:00 2.3 6 Norte 18 Noroeste 0 -- -- 82
2020-01-11 05:00:00 2.8 14 Noroeste 23 Noroeste 0 -- -- 81
2020-01-11 04:00:00 2.6 10 Noroeste 18 Noroeste 0 -- -- 82
2020-01-11 03:00:00 3 12 Noroeste 19 Noroeste 0 -- -- 81
2020-01-11 02:00:00 3.5 15 Noroeste 21 Noroeste 0 -- -- 83
2020-01-11 01:00:00 3.5 15 Noroeste 22 Noroeste 0 -- -- 85
2020-01-11 00:00:00 3.8 13 Noroeste 23 Noroeste 0 -- -- 85
2020-01-10 23:00:00 5.1 17 Noroeste 24 Noroeste 0 -- -- 79
2020-01-10 22:00:00 5.6 20 Noroeste 27 Oeste 0 -- -- 77
2020-01-10 21:00:00 5.7 21 Noroeste 30 Oeste 0 -- -- 78
2020-01-10 20:00:00 6.2 21 Noroeste 27 Noroeste 0 -- -- 76
2020-01-10 19:00:00 6.9 19 Noroeste 28 Noroeste 0 -- -- 76
2020-01-10 18:00:00 8.2 16 Oeste 26 Oeste 0 -- -- 72
2020-01-10 17:00:00 10.4 19 Noroeste 34 Noroeste 0 -- -- 67
2020-01-10 16:00:00 11.3 24 Noroeste 35 Noroeste 0 -- -- 64
2020-01-10 15:00:00 11.4 23 Noroeste 34 Noroeste 0 -- -- 62
2020-01-10 14:00:00 11 22 Noroeste 36 Noroeste 0 -- -- 64
2020-01-10 13:00:00 10.5 21 Noroeste 32 Noroeste 0 -- -- 65
2020-01-10 12:00:00 8.5 8 Noroeste 13 Noroeste 0 -- -- 76
2020-01-10 11:00:00 5.9 6 Norte 13 Norte 0 -- -- 83
2020-01-10 10:00:00 4.7 5 Nordeste 36 Noroeste 0 -- -- 88
2020-01-10 09:00:00 6.1 25 Noroeste 46 Noroeste 0 -- -- 75
2020-01-10 08:00:00 6.1 31 Noroeste 46 Noroeste 0 -- -- 76
2020-01-10 07:00:00 6.1 34 Noroeste 48 Noroeste 0 -- -- 80
2020-01-10 06:00:00 6.5 38 Noroeste 53 Noroeste 0 -- -- 80
2020-01-10 05:00:00 6.4 31 Noroeste 44 Noroeste 0 -- -- 87
2020-01-10 04:00:00 5.2 17 Noroeste 31 Noroeste 0 -- -- 96
2020-01-10 03:00:00 4.6 15 Oeste 24 Noroeste 0 -- -- 98
2020-01-10 02:00:00 3.3 14 Oeste 19 Noroeste 0 -- -- 98
2020-01-10 01:00:00 3.4 7 Norte 12 Noroeste 0 -- -- 98
2020-01-10 00:00:00 3.3 3 Norte 8 Oeste 0 -- -- 98
2020-01-09 23:00:00 3 2 Noroeste 7 Norte 0 -- -- 98
2020-01-09 22:00:00 2.7 3 Este 14 Noroeste 0 -- -- 98
2020-01-09 21:00:00 2.6 6 Noroeste 13 Norte 0 -- -- 98
2020-01-09 20:00:00 2.7 6 Oeste 9 Oeste 0 -- -- 98
2020-01-09 19:00:00 2.9 3 Oeste 8 Sur 0 -- -- 98
2020-01-09 18:00:00 3 0 Calma 6 Norte 0 -- -- 98
2020-01-09 17:00:00 3.1 3 Noroeste 10 Sur 0 -- -- 98
2020-01-09 16:00:00 3.3 5 Sudeste 10 Sur 0 -- -- 98
2020-01-09 15:00:00 3.2 2 Sudoeste 10 Sur 0 -- -- 98
2020-01-09 14:00:00 2.9 4 Nordeste 8 Norte 0 -- -- 98
2020-01-09 13:00:00 2.9 3 Este 6 Nordeste 0 -- -- 98
2020-01-09 12:00:00 1.8 0 Calma 6 Norte 0 -- -- 98
2020-01-09 11:00:00 0.5 5 Nordeste 7 Nordeste 0 -- -- 98
2020-01-09 10:00:00 -0.6 0 Calma 8 Norte 0 -- -- 98
2020-01-09 09:00:00 -1.1 3 Norte 6 Sudoeste 0 -- -- 98
2020-01-09 08:00:00 -0.7 4 Sudoeste 6 Sudeste 0 -- -- 98
2020-01-09 07:00:00 -0.6 3 Sudeste 8 Norte 0 -- -- 98
2020-01-09 06:00:00 -0.5 5 Nordeste 6 Norte 0 -- -- 98
2020-01-09 05:00:00 -0.3 0 Calma 5 Noroeste 0 -- -- 98
2020-01-09 04:00:00 -0.5 3 Norte 5 Noroeste 0 -- -- 98
2020-01-09 03:00:00 -1.1 2 Oeste 5 Sudoeste 0 -- -- 98
2020-01-09 02:00:00 -1.2 3 Sudoeste 5 Sur 0 -- -- 98
2020-01-09 01:00:00 -1 4 Noroeste 6 Noroeste 0 -- -- 98
2020-01-09 00:00:00 -0.6 2 Sudeste 9 Nordeste 0 -- -- 98
2020-01-08 23:00:00 -0.3 2 Sur 5 Nordeste 0 -- -- 98
2020-01-08 22:00:00 0 3 Nordeste 5 Norte 0 -- -- 98
2020-01-08 21:00:00 0.4 3 Noroeste 14 Noroeste 0 -- -- 98
2020-01-08 20:00:00 1.6 12 Noroeste 14 Noroeste 0 -- -- 98
2020-01-08 19:00:00 2 5 Oeste 8 Norte 0 -- -- 98
2020-01-08 18:00:00 2.1 5 Norte 8 Norte 0 -- -- 98
2020-01-08 17:00:00 2.2 6 Sur 12 Sudeste 0 -- -- 98
2020-01-08 16:00:00 2.2 6 Sudeste 11 Sudeste 0 -- -- 98
2020-01-08 15:00:00 2.3 7 Sur 12 Sur 0 -- -- 98
2020-01-08 14:00:00 2.1 2 Sur 6 Sudeste 0 -- -- 98
2020-01-08 13:00:00 1.7 4 Sudeste 10 Sur 0 -- -- 98
2020-01-08 12:00:00 1.6 6 Sudeste 13 Sudeste 0 -- -- 98
2020-01-08 11:00:00 1.8 3 Este 9 Nordeste 0 -- -- 98
2020-01-08 10:00:00 1.5 5 Sur 10 Sudeste 0 -- -- 98
2020-01-08 09:00:00 1.3 5 Este 12 Este 0 -- -- 98
2020-01-08 08:00:00 1.5 4 Este 8 Nordeste 0 -- -- 98
2020-01-08 07:00:00 1.8 2 Este 10 Nordeste 0 -- -- 98
2020-01-08 06:00:00 1.9 3 Este 6 Nordeste 0 -- -- 98
2020-01-08 05:00:00 2 2 Norte 5 Este 0 -- -- 98
2020-01-08 04:00:00 1.9 2 Sudoeste 10 Sudoeste 0 -- -- 98
2020-01-08 03:00:00 1.9 7 Sudoeste 9 Sudoeste 0 -- -- 98
2020-01-08 02:00:00 2 4 Sudoeste 6 Oeste 0 -- -- 98
2020-01-08 01:00:00 2.1 4 Oeste 7 Norte 0 -- -- 98
2020-01-08 00:00:00 2.1 6 Norte 8 Norte 0 -- -- 98
2020-01-07 23:00:00 2.3 0 Calma 5 Norte 0 -- -- 98
2020-01-07 22:00:00 2.2 0 Calma 7 Este 0 -- -- 98
2020-01-07 21:00:00 2.3 4 Sudeste 8 Este 0 -- -- 98
2020-01-07 20:00:00 2.3 4 Sudeste 6 Este 0 -- -- 98
2020-01-07 19:00:00 2.3 3 Este 6 Este 0 -- -- 98
2020-01-07 18:00:00 2.3 0 Calma 8 Nordeste 0 -- -- 98
2020-01-07 17:00:00 2.4 5 Nordeste 9 Nordeste 0 -- -- 98
2020-01-07 16:00:00 2.4 2 Nordeste 8 Este 0 -- -- 98
2020-01-07 15:00:00 2.3 4 Nordeste 8 Nordeste 0 -- -- 98
2020-01-07 14:00:00 2.1 6 Nordeste 12 Nordeste 0 -- -- 98
2020-01-07 13:00:00 1.2 5 Norte 13 Norte 0 -- -- 98
2020-01-07 12:00:00 0.8 6 Noroeste 9 Norte 0 -- -- 98
2020-01-07 11:00:00 0.3 3 Noroeste 10 Noroeste 0 -- -- 98
2020-01-07 10:00:00 0.3 3 Oeste 8 Oeste 0 -- -- 98
2020-01-07 09:00:00 0.2 4 Oeste 9 Noroeste 0 -- -- 98
2020-01-07 08:00:00 0.4 5 Oeste 11 Noroeste 0 -- -- 98
2020-01-07 07:00:00 0.4 8 Noroeste 11 Noroeste 0 -- -- 98
2020-01-07 06:00:00 0.6 6 Noroeste 12 Noroeste 0 -- -- 98
2020-01-07 05:00:00 0.8 6 Noroeste 12 Noroeste 0 -- -- 98
2020-01-07 04:00:00 0.8 5 Norte 11 Norte 0 -- -- 98
2020-01-07 03:00:00 0.9 4 Norte 11 Norte 0 -- -- 98
2020-01-07 02:00:00 1 8 Noroeste 11 Noroeste 0 -- -- 98
2020-01-07 01:00:00 1.2 7 Oeste 12 Norte 0 -- -- 97
2020-01-07 00:00:00 1.6 7 Norte 13 Norte 0 -- -- 97
2020-01-06 23:00:00 2 5 Norte 8 Noroeste 0 -- -- 98
2020-01-06 22:00:00 2.1 3 Oeste 9 Nordeste 0 -- -- 97
2020-01-06 21:00:00 2.1 5 Norte 14 Norte 0 -- -- 98
2020-01-06 20:00:00 2.5 11 Norte 17 Norte 0 -- -- 97
2020-01-06 19:00:00 3.5 11 Norte 13 Norte 0 -- -- 97
2020-01-06 18:00:00 4.6 4 Nordeste 12 Noroeste 0 -- -- 97
2020-01-06 17:00:00 4.8 5 Norte 8 Noroeste 0 -- -- 97
2020-01-06 16:00:00 5.1 4 Noroeste 6 Noroeste 0 -- -- 97
2020-01-06 15:00:00 5.1 3 Sudeste 9 Norte 0 -- -- 98
2020-01-06 14:00:00 4.8 5 Noroeste 8 Norte 0 -- -- 97
2020-01-06 13:00:00 4.8 4 Sudoeste 8 Sudoeste 0 -- -- 98
2020-01-06 12:00:00 3.8 4 Norte 6 Noroeste 0 -- -- 98
2020-01-06 11:00:00 2.6 5 Noroeste 8 Norte 0 -- -- 98
2020-01-06 10:00:00 1.5 6 Noroeste 13 Noroeste 0 -- -- 98